createdAt,value
2023-02-23T00:00:39.847Z,1017.17
2023-02-23T00:01:39.850Z,1017.1
2023-02-23T00:02:40.020Z,1017.12
2023-02-23T00:03:39.954Z,1017.05
2023-02-23T00:04:39.840Z,1017.09
2023-02-23T00:05:39.845Z,1017.02
2023-02-23T00:06:39.895Z,1017.11
2023-02-23T00:07:39.846Z,1017.05
2023-02-23T00:08:39.850Z,1017.05
2023-02-23T00:09:39.845Z,1017.05
2023-02-23T00:10:39.842Z,1017.11
2023-02-23T00:11:39.851Z,1017.06
2023-02-23T00:12:39.849Z,1017.08
2023-02-23T00:13:39.850Z,1017
2023-02-23T00:14:39.845Z,1017.06
2023-02-23T00:15:39.858Z,1017
2023-02-23T00:16:39.887Z,1017.09
2023-02-23T00:17:39.841Z,1017.02
2023-02-23T00:18:39.862Z,1017
2023-02-23T00:19:39.844Z,1017.02
2023-02-23T00:20:39.862Z,1016.99
2023-02-23T00:21:39.836Z,1016.95
2023-02-23T00:22:39.840Z,1016.98
2023-02-23T00:23:39.859Z,1016.98
2023-02-23T00:24:39.843Z,1017
2023-02-23T00:25:39.850Z,1017.05
2023-02-23T00:26:39.845Z,1016.97
2023-02-23T00:27:39.852Z,1016.99
2023-02-23T00:28:39.856Z,1016.99
2023-02-23T00:29:39.844Z,1016.95
2023-02-23T00:30:39.889Z,1016.99
2023-02-23T00:31:39.950Z,1017
2023-02-23T00:32:39.995Z,1017
2023-02-23T00:33:39.857Z,1016.99
2023-02-23T00:34:39.850Z,1016.93
2023-02-23T00:35:39.846Z,1016.96
2023-02-23T00:36:39.859Z,1016.93
2023-02-23T00:37:39.848Z,1016.93
2023-02-23T00:38:39.871Z,1016.98
2023-02-23T00:39:39.852Z,1016.92
2023-02-23T00:40:39.866Z,1016.97
2023-02-23T00:41:39.848Z,1016.91
2023-02-23T00:42:39.835Z,1016.95
2023-02-23T00:43:39.866Z,1016.98
2023-02-23T00:44:39.853Z,1016.91
2023-02-23T00:45:39.990Z,1017
2023-02-23T00:46:39.843Z,1016.95
2023-02-23T00:47:39.853Z,1016.92
2023-02-23T00:48:40.016Z,1016.95
2023-02-23T00:49:39.848Z,1016.97
2023-02-23T00:50:39.855Z,1016.94
2023-02-23T00:51:39.866Z,1017.01
2023-02-23T00:52:39.847Z,1016.94
2023-02-23T00:53:39.855Z,1016.97
2023-02-23T00:54:39.862Z,1016.98
2023-02-23T00:55:39.849Z,1016.99
2023-02-23T00:56:39.849Z,1016.99
2023-02-23T00:57:39.848Z,1017.05
2023-02-23T00:58:39.864Z,1016.93
2023-02-23T00:59:39.843Z,1016.96
2023-02-23T01:00:39.853Z,1017.09
2023-02-23T01:01:39.927Z,1017.06
2023-02-23T01:02:39.923Z,1017.01
2023-02-23T01:03:39.860Z,1017.08
2023-02-23T01:04:39.860Z,1017
2023-02-23T01:05:39.864Z,1017.01
2023-02-23T01:06:39.840Z,1017.12
2023-02-23T01:07:39.847Z,1016.93
2023-02-23T01:08:39.857Z,1016.93
2023-02-23T01:09:39.837Z,1016.99
2023-02-23T01:10:39.852Z,1016.97
2023-02-23T01:11:39.849Z,1017.03
2023-02-23T01:12:39.851Z,1017.06
2023-02-23T01:13:39.857Z,1017.07
2023-02-23T01:14:39.895Z,1017.12
2023-02-23T01:15:39.894Z,1016.96
2023-02-23T01:16:39.857Z,1017.01
2023-02-23T01:17:39.840Z,1017.08
2023-02-23T01:18:39.849Z,1017.09
2023-02-23T01:19:39.846Z,1017.07
2023-02-23T01:20:41.692Z,1017.08
2023-02-23T01:21:39.845Z,1017.07
2023-02-23T01:22:39.850Z,1017.09
2023-02-23T01:23:39.847Z,1017.09
2023-02-23T01:24:39.836Z,1017.15
2023-02-23T01:25:39.838Z,1017.14
2023-02-23T01:26:39.848Z,1017.11
2023-02-23T01:27:39.843Z,1017.11
2023-02-23T01:28:39.849Z,1017.08
2023-02-23T01:29:39.838Z,1017.09
2023-02-23T01:30:40.006Z,1017.03
2023-02-23T01:31:39.965Z,1017.15
2023-02-23T01:32:39.877Z,1017.16
2023-02-23T01:33:39.849Z,1017.11
2023-02-23T01:34:39.840Z,1017.12
2023-02-23T01:35:39.839Z,1017.13
2023-02-23T01:36:39.847Z,1017.12
2023-02-23T01:37:39.848Z,1017.16
2023-02-23T01:38:39.851Z,1017.08
2023-02-23T01:39:39.834Z,1017.07
2023-02-23T01:40:39.837Z,1017.15
2023-02-23T01:41:39.836Z,1017.14
2023-02-23T01:42:39.842Z,1017.13
2023-02-23T01:43:39.850Z,1017.13
2023-02-23T01:44:39.838Z,1017.11
2023-02-23T01:45:39.850Z,1017.16
2023-02-23T01:46:39.853Z,1017.1
2023-02-23T01:47:39.839Z,1017.07
2023-02-23T01:48:39.873Z,1017.09
2023-02-23T01:49:39.853Z,1017.07
2023-02-23T01:50:39.863Z,1017.03
2023-02-23T01:51:39.853Z,1016.98
2023-02-23T01:52:39.840Z,1017.03
2023-02-23T01:53:39.855Z,1017.05
2023-02-23T01:54:39.840Z,1017.07
2023-02-23T01:55:39.835Z,1017.05
2023-02-23T01:56:39.845Z,1017.05
2023-02-23T01:57:39.847Z,1016.99
2023-02-23T01:58:39.856Z,1017.02
2023-02-23T01:59:39.875Z,1017.01
2023-02-23T02:00:39.845Z,1017
2023-02-23T02:01:39.874Z,1016.96
2023-02-23T02:02:39.840Z,1017.03
2023-02-23T02:03:39.851Z,1016.95
2023-02-23T02:04:39.860Z,1016.98
2023-02-23T02:05:39.839Z,1016.97
2023-02-23T02:06:39.839Z,1016.98
2023-02-23T02:07:39.835Z,1016.95
2023-02-23T02:08:39.857Z,1016.95
2023-02-23T02:09:39.842Z,1016.96
2023-02-23T02:10:39.842Z,1016.85
2023-02-23T02:11:39.838Z,1016.94
2023-02-23T02:12:39.839Z,1016.92
2023-02-23T02:13:39.849Z,1016.94
2023-02-23T02:14:39.839Z,1016.96
2023-02-23T02:15:39.843Z,1016.93
2023-02-23T02:16:39.842Z,1016.91
2023-02-23T02:17:39.832Z,1016.88
2023-02-23T02:18:39.833Z,1016.9
2023-02-23T02:19:39.831Z,1016.89
2023-02-23T02:20:39.829Z,1016.85
2023-02-23T02:21:39.839Z,1016.92
2023-02-23T02:22:39.829Z,1016.85
2023-02-23T02:23:39.850Z,1016.88
2023-02-23T02:24:39.933Z,1016.9
2023-02-23T02:25:39.829Z,1016.85
2023-02-23T02:26:39.854Z,1016.87
2023-02-23T02:27:39.839Z,1016.87
2023-02-23T02:28:39.847Z,1016.88
2023-02-23T02:29:39.835Z,1016.91
2023-02-23T02:30:39.873Z,1016.86
2023-02-23T02:31:39.956Z,1016.9
2023-02-23T02:32:39.824Z,1016.88
2023-02-23T02:33:39.839Z,1016.86
2023-02-23T02:34:39.844Z,1016.86
2023-02-23T02:35:39.844Z,1016.85
2023-02-23T02:36:39.843Z,1016.85
2023-02-23T02:37:39.832Z,1016.87
2023-02-23T02:38:39.851Z,1016.86
2023-02-23T02:39:39.836Z,1016.87
2023-02-23T02:40:39.830Z,1016.88
2023-02-23T02:41:39.833Z,1016.88
2023-02-23T02:42:39.842Z,1016.84
2023-02-23T02:43:39.848Z,1016.86
2023-02-23T02:44:39.832Z,1016.86
2023-02-23T02:45:39.849Z,1016.85
2023-02-23T02:46:39.833Z,1016.82
2023-02-23T02:47:39.839Z,1016.8
2023-02-23T02:48:39.854Z,1016.82
2023-02-23T02:49:39.833Z,1016.87
2023-02-23T02:50:39.835Z,1016.84
2023-02-23T02:51:39.830Z,1016.86
2023-02-23T02:52:39.833Z,1016.85
2023-02-23T02:53:39.849Z,1016.84
2023-02-23T02:54:39.830Z,1016.84
2023-02-23T02:55:39.850Z,1016.84
2023-02-23T02:56:39.827Z,1016.79
2023-02-23T02:57:39.842Z,1016.82
2023-02-23T02:58:39.848Z,1016.79
2023-02-23T02:59:39.838Z,1016.79
2023-02-23T03:00:39.854Z,1016.84
2023-02-23T03:01:40.020Z,1016.75
2023-02-23T03:02:39.849Z,1016.77
2023-02-23T03:03:39.851Z,1016.77
2023-02-23T03:04:39.835Z,1016.77
2023-02-23T03:05:39.832Z,1016.75
2023-02-23T03:06:39.832Z,1016.85
2023-02-23T03:07:39.848Z,1016.77
2023-02-23T03:08:39.852Z,1016.77
2023-02-23T03:09:39.845Z,1016.76
2023-02-23T03:10:39.840Z,1016.76
2023-02-23T03:11:39.831Z,1016.77
2023-02-23T03:12:39.833Z,1016.76
2023-02-23T03:13:39.850Z,1016.78
2023-02-23T03:14:39.856Z,1016.73
2023-02-23T03:15:39.857Z,1016.72
2023-02-23T03:16:39.858Z,1016.7
2023-02-23T03:17:39.832Z,1016.72
2023-02-23T03:18:39.845Z,1016.68
2023-02-23T03:19:39.845Z,1016.65
2023-02-23T03:20:39.848Z,1016.77
2023-02-23T03:21:39.839Z,1016.75
2023-02-23T03:22:39.845Z,1016.66
2023-02-23T03:23:39.847Z,1016.65
2023-02-23T03:24:39.841Z,1016.63
2023-02-23T03:25:39.835Z,1016.68
2023-02-23T03:26:39.835Z,1016.63
2023-02-23T03:27:39.843Z,1016.66
2023-02-23T03:28:39.853Z,1016.65
2023-02-23T03:29:39.848Z,1016.66
2023-02-23T03:30:39.867Z,1016.64
2023-02-23T03:31:39.983Z,1016.69
2023-02-23T03:32:39.906Z,1016.66
2023-02-23T03:33:39.850Z,1016.66
2023-02-23T03:34:39.848Z,1016.7
2023-02-23T03:35:39.833Z,1016.7
2023-02-23T03:36:39.850Z,1016.7
2023-02-23T03:37:39.840Z,1016.66
2023-02-23T03:38:39.850Z,1016.67
2023-02-23T03:39:39.851Z,1016.66
2023-02-23T03:40:39.833Z,1016.63
2023-02-23T03:41:39.849Z,1016.66
2023-02-23T03:42:39.832Z,1016.6
2023-02-23T03:43:39.859Z,1016.63
2023-02-23T03:44:39.832Z,1016.64
2023-02-23T03:45:39.923Z,1016.63
2023-02-23T03:46:39.834Z,1016.62
2023-02-23T03:47:39.837Z,1016.64
2023-02-23T03:48:39.862Z,1016.66
2023-02-23T03:49:39.958Z,1016.65
2023-02-23T03:50:39.848Z,1016.65
2023-02-23T03:51:39.830Z,1016.64
2023-02-23T03:52:39.841Z,1016.66
2023-02-23T03:53:39.854Z,1016.61
2023-02-23T03:54:39.849Z,1016.69
2023-02-23T03:55:39.840Z,1016.64
2023-02-23T03:56:39.837Z,1016.69
2023-02-23T03:57:39.842Z,1016.66
2023-02-23T03:58:39.856Z,1016.61
2023-02-23T03:59:39.840Z,1016.68
2023-02-23T04:00:39.841Z,1016.59
2023-02-23T04:01:39.902Z,1016.6
2023-02-23T04:02:39.847Z,1016.61
2023-02-23T04:03:39.900Z,1016.66
2023-02-23T04:04:39.850Z,1016.62
2023-02-23T04:05:39.826Z,1016.62
2023-02-23T04:06:39.842Z,1016.65
2023-02-23T04:07:39.833Z,1016.61
2023-02-23T04:08:39.851Z,1016.61
2023-02-23T04:09:39.840Z,1016.6
2023-02-23T04:10:39.837Z,1016.63
2023-02-23T04:11:39.834Z,1016.63
2023-02-23T04:12:39.837Z,1016.63
2023-02-23T04:13:39.856Z,1016.65
2023-02-23T04:14:39.832Z,1016.56
2023-02-23T04:15:39.851Z,1016.62
2023-02-23T04:16:39.855Z,1016.59
2023-02-23T04:17:39.831Z,1016.7
2023-02-23T04:18:39.847Z,1016.65
2023-02-23T04:19:39.831Z,1016.59
2023-02-23T04:20:39.856Z,1016.55
2023-02-23T04:21:39.858Z,1016.57
2023-02-23T04:22:39.838Z,1016.56
2023-02-23T04:23:39.850Z,1016.59
2023-02-23T04:24:39.827Z,1016.54
2023-02-23T04:25:39.840Z,1016.54
2023-02-23T04:26:39.832Z,1016.54
2023-02-23T04:27:39.842Z,1016.54
2023-02-23T04:28:39.859Z,1016.53
2023-02-23T04:29:39.845Z,1016.52
2023-02-23T04:30:39.860Z,1016.47
2023-02-23T04:31:39.917Z,1016.5
2023-02-23T04:32:40.048Z,1016.52
2023-02-23T04:33:39.841Z,1016.56
2023-02-23T04:34:39.843Z,1016.56
2023-02-23T04:35:39.835Z,1016.62
2023-02-23T04:36:39.828Z,1016.62
2023-02-23T04:37:39.844Z,1016.54
2023-02-23T04:38:39.860Z,1016.54
2023-02-23T04:39:39.869Z,1016.55
2023-02-23T04:40:39.843Z,1016.53
2023-02-23T04:41:39.818Z,1016.6
2023-02-23T04:42:39.843Z,1016.53
2023-02-23T04:43:39.855Z,1016.55
2023-02-23T04:44:39.833Z,1016.59
2023-02-23T04:45:39.875Z,1016.53
2023-02-23T04:46:39.833Z,1016.57
2023-02-23T04:47:39.843Z,1016.59
2023-02-23T04:48:39.862Z,1016.56
2023-02-23T04:49:39.850Z,1016.54
2023-02-23T04:50:39.836Z,1016.55
2023-02-23T04:51:39.836Z,1016.52
2023-02-23T04:52:39.848Z,1016.52
2023-02-23T04:53:39.850Z,1016.5
2023-02-23T04:54:39.873Z,1016.56
2023-02-23T04:55:39.845Z,1016.47
2023-02-23T04:56:39.835Z,1016.46
2023-02-23T04:57:39.837Z,1016.47
2023-02-23T04:58:39.847Z,1016.41
2023-02-23T04:59:39.841Z,1016.43
2023-02-23T05:00:39.850Z,1016.44
2023-02-23T05:01:39.851Z,1016.48
2023-02-23T05:02:39.845Z,1016.47
2023-02-23T05:03:39.851Z,1016.44
2023-02-23T05:04:39.954Z,1016.49
2023-02-23T05:05:39.858Z,1016.52
2023-02-23T05:06:39.840Z,1016.57
2023-02-23T05:07:39.832Z,1016.46
2023-02-23T05:08:39.851Z,1016.46
2023-02-23T05:09:41.135Z,1016.48
2023-02-23T05:10:40.424Z,1016.48
2023-02-23T05:11:39.836Z,1016.52
2023-02-23T05:12:39.832Z,1016.48
2023-02-23T05:13:39.921Z,1016.5
2023-02-23T05:14:39.834Z,1016.5
2023-02-23T05:15:39.940Z,1016.54
2023-02-23T05:16:39.851Z,1016.48
2023-02-23T05:17:39.841Z,1016.49
2023-02-23T05:18:39.876Z,1016.53
2023-02-23T05:19:39.837Z,1016.55
2023-02-23T05:20:39.832Z,1016.48
2023-02-23T05:21:39.856Z,1016.5
2023-02-23T05:22:39.838Z,1016.47
2023-02-23T05:23:39.866Z,1016.45
2023-02-23T05:24:39.852Z,1016.44
2023-02-23T05:25:39.846Z,1016.53
2023-02-23T05:26:39.831Z,1016.46
2023-02-23T05:27:39.835Z,1016.49
2023-02-23T05:28:39.854Z,1016.5
2023-02-23T05:29:39.849Z,1016.52
2023-02-23T05:30:39.864Z,1016.48
2023-02-23T05:31:39.929Z,1016.47
2023-02-23T05:32:39.860Z,1016.41
2023-02-23T05:33:39.856Z,1016.47
2023-02-23T05:34:39.867Z,1016.42
2023-02-23T05:35:39.845Z,1016.42
2023-02-23T05:36:39.837Z,1016.46
2023-02-23T05:37:39.840Z,1016.47
2023-02-23T05:38:39.841Z,1016.48
2023-02-23T05:39:39.841Z,1016.48
2023-02-23T05:40:39.847Z,1016.52
2023-02-23T05:41:39.830Z,1016.49
2023-02-23T05:42:39.832Z,1016.55
2023-02-23T05:43:39.853Z,1016.52
2023-02-23T05:44:39.838Z,1016.52
2023-02-23T05:45:39.849Z,1016.57
2023-02-23T05:46:39.842Z,1016.56
2023-02-23T05:47:39.843Z,1016.55
2023-02-23T05:48:39.857Z,1016.55
2023-02-23T05:49:39.837Z,1016.61
2023-02-23T05:50:39.851Z,1016.61
2023-02-23T05:51:39.825Z,1016.6
2023-02-23T05:52:39.829Z,1016.63
2023-02-23T05:53:39.846Z,1016.62
2023-02-23T05:54:39.840Z,1016.6
2023-02-23T05:55:39.836Z,1016.62
2023-02-23T05:56:39.842Z,1016.64
2023-02-23T05:57:39.849Z,1016.62
2023-02-23T05:58:39.848Z,1016.65
2023-02-23T05:59:39.827Z,1016.63
2023-02-23T06:00:39.843Z,1016.59
2023-02-23T06:01:39.825Z,1016.6
2023-02-23T06:02:39.889Z,1016.59
2023-02-23T06:03:39.877Z,1016.66
2023-02-23T06:04:39.840Z,1016.56
2023-02-23T06:05:39.833Z,1016.56
2023-02-23T06:06:39.841Z,1016.59
2023-02-23T06:07:39.837Z,1016.61
2023-02-23T06:08:39.850Z,1016.61
2023-02-23T06:09:39.838Z,1016.63
2023-02-23T06:10:39.849Z,1016.66
2023-02-23T06:11:39.844Z,1016.66
2023-02-23T06:12:39.834Z,1016.65
2023-02-23T06:13:39.844Z,1016.69
2023-02-23T06:14:39.843Z,1016.67
2023-02-23T06:15:39.881Z,1016.69
2023-02-23T06:16:39.976Z,1016.67
2023-02-23T06:17:39.835Z,1016.64
2023-02-23T06:18:39.840Z,1016.7
2023-02-23T06:19:39.837Z,1016.71
2023-02-23T06:20:40.447Z,1016.68
2023-02-23T06:21:39.842Z,1016.72
2023-02-23T06:22:39.837Z,1016.73
2023-02-23T06:23:39.848Z,1016.75
2023-02-23T06:24:39.833Z,1016.73
2023-02-23T06:25:39.845Z,1016.8
2023-02-23T06:26:39.840Z,1016.83
2023-02-23T06:27:39.838Z,1016.79
2023-02-23T06:28:39.854Z,1016.77
2023-02-23T06:29:39.829Z,1016.8
2023-02-23T06:30:39.897Z,1016.82
2023-02-23T06:31:39.988Z,1016.78
2023-02-23T06:32:39.906Z,1016.86
2023-02-23T06:33:39.848Z,1016.83
2023-02-23T06:34:39.828Z,1016.78
2023-02-23T06:35:39.836Z,1016.82
2023-02-23T06:36:39.835Z,1016.9
2023-02-23T06:37:39.838Z,1016.83
2023-02-23T06:38:39.848Z,1016.83
2023-02-23T06:39:39.835Z,1016.88
2023-02-23T06:40:39.828Z,1016.94
2023-02-23T06:41:39.837Z,1016.96
2023-02-23T06:42:39.856Z,1016.92
2023-02-23T06:43:39.851Z,1016.96
2023-02-23T06:44:39.831Z,1016.98
2023-02-23T06:45:39.857Z,1016.94
2023-02-23T06:46:39.906Z,1016.97
2023-02-23T06:47:39.838Z,1017.03
2023-02-23T06:48:40.007Z,1016.95
2023-02-23T06:49:39.836Z,1016.9
2023-02-23T06:50:39.837Z,1017.02
2023-02-23T06:51:39.828Z,1016.97
2023-02-23T06:52:39.851Z,1017
2023-02-23T06:53:39.854Z,1017.09
2023-02-23T06:54:39.844Z,1017.03
2023-02-23T06:55:39.839Z,1017.07
2023-02-23T06:56:39.837Z,1017.1
2023-02-23T06:57:39.831Z,1016.98
2023-02-23T06:58:39.842Z,1017.07
2023-02-23T06:59:39.829Z,1017.03
2023-02-23T07:00:39.850Z,1017.06
2023-02-23T07:01:39.888Z,1017.03
2023-02-23T07:02:39.834Z,1016.98
2023-02-23T07:03:39.971Z,1016.96
2023-02-23T07:04:39.860Z,1017
2023-02-23T07:05:39.848Z,1016.98
2023-02-23T07:06:39.836Z,1017.01
2023-02-23T07:07:39.834Z,1017.02
2023-02-23T07:08:39.850Z,1016.96
2023-02-23T07:09:39.830Z,1017.07
2023-02-23T07:10:39.841Z,1016.98
2023-02-23T07:11:39.845Z,1016.94
2023-02-23T07:12:39.841Z,1016.91
2023-02-23T07:13:39.853Z,1016.92
2023-02-23T07:14:39.824Z,1016.93
2023-02-23T07:15:39.855Z,1016.9
2023-02-23T07:16:39.896Z,1016.91
2023-02-23T07:17:39.848Z,1016.91
2023-02-23T07:18:39.849Z,1016.89
2023-02-23T07:19:39.833Z,1016.9
2023-02-23T07:20:39.836Z,1016.89
2023-02-23T07:21:39.824Z,1016.89
2023-02-23T07:22:40.120Z,1016.85
2023-02-23T07:23:39.849Z,1016.82
2023-02-23T07:24:39.828Z,1016.86
2023-02-23T07:25:39.832Z,1016.86
2023-02-23T07:26:39.833Z,1016.83
2023-02-23T07:27:39.827Z,1016.84
2023-02-23T07:28:39.857Z,1016.87
2023-02-23T07:29:39.825Z,1016.74
2023-02-23T07:30:39.911Z,1016.8
2023-02-23T07:31:40.063Z,1016.77
2023-02-23T07:32:39.896Z,1016.77
2023-02-23T07:33:39.848Z,1016.79
2023-02-23T07:34:39.824Z,1016.77
2023-02-23T07:35:39.833Z,1016.77
2023-02-23T07:36:39.861Z,1016.65
2023-02-23T07:37:39.825Z,1016.69
2023-02-23T07:38:39.851Z,1016.7
2023-02-23T07:39:39.836Z,1016.68
2023-02-23T07:40:39.830Z,1016.69
2023-02-23T07:41:39.853Z,1016.67
2023-02-23T07:42:39.833Z,1016.65
2023-02-23T07:43:39.849Z,1016.71
2023-02-23T07:44:39.847Z,1016.68
2023-02-23T07:45:39.895Z,1016.73
2023-02-23T07:46:39.834Z,1016.76
2023-02-23T07:47:39.841Z,1016.73
2023-02-23T07:48:39.972Z,1016.75
2023-02-23T07:49:39.836Z,1016.75
2023-02-23T07:50:39.845Z,1016.74
2023-02-23T07:51:39.833Z,1016.73
2023-02-23T07:52:39.845Z,1016.72
2023-02-23T07:53:39.856Z,1016.69
2023-02-23T07:54:39.843Z,1016.68
2023-02-23T07:55:39.841Z,1016.71
2023-02-23T07:56:39.833Z,1016.75
2023-02-23T07:57:39.841Z,1016.79
2023-02-23T07:58:39.863Z,1016.76
2023-02-23T07:59:39.835Z,1016.65
2023-02-23T08:00:39.854Z,1016.74
2023-02-23T08:01:39.836Z,1016.7
2023-02-23T08:02:39.846Z,1016.68
2023-02-23T08:03:39.850Z,1016.75
2023-02-23T08:04:39.868Z,1016.6
2023-02-23T08:05:39.836Z,1016.71
2023-02-23T08:06:39.842Z,1016.68
2023-02-23T08:07:39.845Z,1016.72
2023-02-23T08:08:39.845Z,1016.78
2023-02-23T08:09:39.844Z,1016.73
2023-02-23T08:10:39.839Z,1016.76
2023-02-23T08:11:39.845Z,1016.74
2023-02-23T08:12:39.886Z,1016.73
2023-02-23T08:13:39.851Z,1016.72
2023-02-23T08:14:39.847Z,1016.72
2023-02-23T08:15:39.850Z,1016.77
2023-02-23T08:16:39.942Z,1016.7
2023-02-23T08:17:39.836Z,1016.75
2023-02-23T08:18:39.960Z,1016.71
2023-02-23T08:19:39.844Z,1016.74
2023-02-23T08:20:39.829Z,1016.79
2023-02-23T08:21:39.826Z,1016.75
2023-02-23T08:22:49.425Z,1016.79
2023-02-23T08:23:39.853Z,1016.77
2023-02-23T08:24:39.837Z,1016.85
2023-02-23T08:25:39.833Z,1016.77
2023-02-23T08:26:39.850Z,1016.76
2023-02-23T08:27:39.841Z,1016.77
2023-02-23T08:28:39.849Z,1016.78
2023-02-23T08:29:39.842Z,1016.74
2023-02-23T08:30:39.962Z,1016.71
2023-02-23T08:31:40.109Z,1016.72
2023-02-23T08:32:39.918Z,1016.7
2023-02-23T08:33:39.848Z,1016.67
2023-02-23T08:34:39.847Z,1016.7
2023-02-23T08:35:39.839Z,1016.66
2023-02-23T08:36:39.846Z,1016.7
2023-02-23T08:37:39.834Z,1016.71
2023-02-23T08:38:39.852Z,1016.67
2023-02-23T08:39:39.843Z,1016.72
2023-02-23T08:40:39.850Z,1016.77
2023-02-23T08:41:39.839Z,1016.71
2023-02-23T08:42:39.829Z,1016.75
2023-02-23T08:43:39.850Z,1016.71
2023-02-23T08:44:39.834Z,1016.77
2023-02-23T08:45:39.897Z,1016.71
2023-02-23T08:46:39.847Z,1016.76
2023-02-23T08:47:39.851Z,1016.78
2023-02-23T08:48:39.857Z,1016.82
2023-02-23T08:49:39.829Z,1016.82
2023-02-23T08:50:39.844Z,1016.82
2023-02-23T08:51:39.846Z,1016.75
2023-02-23T08:52:39.896Z,1016.78
2023-02-23T08:53:39.847Z,1016.8
2023-02-23T08:54:39.829Z,1016.78
2023-02-23T08:55:39.835Z,1016.82
2023-02-23T08:56:39.837Z,1017
2023-02-23T08:57:39.843Z,1016.93
2023-02-23T08:58:39.852Z,1016.87
2023-02-23T08:59:39.839Z,1016.76
2023-02-23T09:00:39.849Z,1016.75
2023-02-23T09:01:39.894Z,1016.72
2023-02-23T09:02:39.838Z,1016.78
2023-02-23T09:03:40.665Z,1016.72
2023-02-23T09:04:39.834Z,1016.78
2023-02-23T09:05:39.950Z,1016.73
2023-02-23T09:06:39.841Z,1016.75
2023-02-23T09:07:39.844Z,1016.79
2023-02-23T09:08:39.845Z,1016.79
2023-02-23T09:09:39.846Z,1016.76
2023-02-23T09:10:39.831Z,1016.88
2023-02-23T09:11:39.837Z,1016.87
2023-02-23T09:12:39.851Z,1016.75
2023-02-23T09:13:39.842Z,1016.79
2023-02-23T09:14:39.827Z,1016.75
2023-02-23T09:15:39.902Z,1016.7
2023-02-23T09:16:39.836Z,1016.66
2023-02-23T09:17:39.829Z,1016.7
2023-02-23T09:18:39.855Z,1016.72
2023-02-23T09:19:39.836Z,1016.74
2023-02-23T09:20:39.844Z,1016.71
2023-02-23T09:21:39.838Z,1016.72
2023-02-23T09:22:39.829Z,1016.71
2023-02-23T09:23:39.842Z,1016.71
2023-02-23T09:24:39.831Z,1016.71
2023-02-23T09:25:39.830Z,1016.85
2023-02-23T09:26:39.858Z,1016.7
2023-02-23T09:27:39.833Z,1016.72
2023-02-23T09:28:39.851Z,1016.69
2023-02-23T09:29:39.830Z,1016.66
2023-02-23T09:30:39.872Z,1016.65
2023-02-23T09:31:39.936Z,1016.71
2023-02-23T09:32:39.939Z,1016.74
2023-02-23T09:33:39.852Z,1016.7
2023-02-23T09:34:39.835Z,1016.67
2023-02-23T09:35:39.835Z,1016.66
2023-02-23T09:36:39.844Z,1016.77
2023-02-23T09:37:39.836Z,1016.76
2023-02-23T09:38:39.843Z,1016.73
2023-02-23T09:39:39.863Z,1016.77
2023-02-23T09:40:39.829Z,1016.78
2023-02-23T09:41:39.837Z,1016.83
2023-02-23T09:42:39.838Z,1016.7
2023-02-23T09:43:39.863Z,1016.75
2023-02-23T09:44:39.826Z,1016.73
2023-02-23T09:45:39.871Z,1016.69
2023-02-23T09:46:39.831Z,1016.7
2023-02-23T09:47:39.860Z,1016.71
2023-02-23T09:48:40.025Z,1016.64
2023-02-23T09:49:39.848Z,1016.64
2023-02-23T09:50:39.844Z,1016.67
2023-02-23T09:51:39.824Z,1016.72
2023-02-23T09:52:40.180Z,1016.84
2023-02-23T09:53:39.875Z,1016.7
2023-02-23T09:54:39.847Z,1016.65
2023-02-23T09:55:39.841Z,1016.69
2023-02-23T09:56:39.837Z,1016.8
2023-02-23T09:57:39.847Z,1016.62
2023-02-23T09:58:39.845Z,1016.6
2023-02-23T09:59:39.834Z,1016.68
2023-02-23T10:00:39.856Z,1016.68
2023-02-23T10:01:39.969Z,1016.61
2023-02-23T10:02:39.867Z,1016.64
2023-02-23T10:03:39.849Z,1016.71
2023-02-23T10:04:39.871Z,1016.66
2023-02-23T10:05:39.845Z,1016.8
2023-02-23T10:06:39.841Z,1016.65
2023-02-23T10:07:39.838Z,1016.76
2023-02-23T10:08:39.863Z,1016.67
2023-02-23T10:09:39.851Z,1016.64
2023-02-23T10:10:39.947Z,1016.68
2023-02-23T10:11:41.731Z,1016.63
2023-02-23T10:12:39.852Z,1016.67
2023-02-23T10:13:39.845Z,1016.72
2023-02-23T10:14:39.839Z,1016.71
2023-02-23T10:15:39.880Z,1016.67
2023-02-23T10:16:39.880Z,1016.68
2023-02-23T10:17:39.853Z,1016.67
2023-02-23T10:18:46.642Z,1016.68
2023-02-23T10:19:39.852Z,1016.71
2023-02-23T10:20:39.852Z,1016.68
2023-02-23T10:21:39.865Z,1016.68
2023-02-23T10:22:39.837Z,1016.57
2023-02-23T10:23:39.851Z,1016.61
2023-02-23T10:24:39.855Z,1016.6
2023-02-23T10:25:39.838Z,1016.61
2023-02-23T10:26:39.841Z,1016.62
2023-02-23T10:27:39.834Z,1016.55
2023-02-23T10:28:39.858Z,1016.63
2023-02-23T10:29:39.847Z,1016.53
2023-02-23T10:30:39.922Z,1016.51
2023-02-23T10:31:39.978Z,1016.5
2023-02-23T10:32:39.923Z,1016.47
2023-02-23T10:33:39.855Z,1016.5
2023-02-23T10:34:39.841Z,1016.56
2023-02-23T10:35:39.849Z,1016.5
2023-02-23T10:36:39.859Z,1016.52
2023-02-23T10:37:39.845Z,1016.54
2023-02-23T10:38:39.864Z,1016.46
2023-02-23T10:39:39.832Z,1016.48
2023-02-23T10:40:39.839Z,1016.47
2023-02-23T10:41:39.835Z,1016.45
2023-02-23T10:42:39.831Z,1016.49
2023-02-23T10:43:39.850Z,1016.45
2023-02-23T10:44:39.834Z,1016.47
2023-02-23T10:45:39.860Z,1016.48
2023-02-23T10:46:39.890Z,1016.43
2023-02-23T10:47:39.840Z,1016.35
2023-02-23T10:48:39.973Z,1016.33
2023-02-23T10:49:39.840Z,1016.33
2023-02-23T10:50:39.849Z,1016.36
2023-02-23T10:51:39.845Z,1016.32
2023-02-23T10:52:42.018Z,1016.33
2023-02-23T10:53:39.858Z,1016.3
2023-02-23T10:54:39.835Z,1016.36
2023-02-23T10:55:39.835Z,1016.29
2023-02-23T10:56:39.838Z,1016.3
2023-02-23T10:57:40.173Z,1016.28
2023-02-23T10:58:39.858Z,1016.26
2023-02-23T10:59:39.848Z,1016.31
2023-02-23T11:00:39.847Z,1016.28
2023-02-23T11:01:46.307Z,1016.25
2023-02-23T11:02:39.869Z,1016.27
2023-02-23T11:03:42.712Z,1016.24
2023-02-23T11:04:39.903Z,1016.22
2023-02-23T11:05:39.830Z,1016.2
2023-02-23T11:06:39.845Z,1016.26
2023-02-23T11:07:39.836Z,1016.19
2023-02-23T11:08:39.844Z,1016.2
2023-02-23T11:09:47.066Z,1016.21
2023-02-23T11:10:39.834Z,1016.16
2023-02-23T11:11:39.825Z,1016.18
2023-02-23T11:12:39.879Z,1016.17
2023-02-23T11:13:39.846Z,1016.24
2023-02-23T11:14:40.771Z,1016.16
2023-02-23T11:15:50.381Z,1016.17
2023-02-23T11:16:39.892Z,1016.22
2023-02-23T11:17:39.839Z,1016.18
2023-02-23T11:18:39.854Z,1016.17
2023-02-23T11:19:39.837Z,1016.2
2023-02-23T11:20:39.868Z,1016.16
2023-02-23T11:21:39.846Z,1016.13
2023-02-23T11:22:39.833Z,1016.18
2023-02-23T11:23:39.843Z,1016.19
2023-02-23T11:24:39.825Z,1016.1
2023-02-23T11:25:39.857Z,1016.15
2023-02-23T11:26:39.833Z,1016.09
2023-02-23T11:27:39.837Z,1016.03
2023-02-23T11:28:39.846Z,1016.07
2023-02-23T11:29:39.825Z,1016.02
2023-02-23T11:30:39.862Z,1016.03
2023-02-23T11:31:39.913Z,1016.09
2023-02-23T11:32:39.896Z,1015.98
2023-02-23T11:33:39.853Z,1016
2023-02-23T11:34:39.836Z,1016.04
2023-02-23T11:35:39.831Z,1016.03
2023-02-23T11:36:39.826Z,1015.97
2023-02-23T11:37:39.872Z,1016.01
2023-02-23T11:38:39.841Z,1015.95
2023-02-23T11:39:39.840Z,1016.14
2023-02-23T11:40:39.828Z,1015.8
2023-02-23T11:41:39.848Z,1015.9
2023-02-23T11:42:39.821Z,1015.86
2023-02-23T11:43:39.841Z,1015.85
2023-02-23T11:44:39.829Z,1015.73
2023-02-23T11:45:40.029Z,1015.76
2023-02-23T11:46:39.882Z,1015.85
2023-02-23T11:47:39.837Z,1015.9
2023-02-23T11:48:39.845Z,1015.8
2023-02-23T11:49:39.837Z,1015.8
2023-02-23T11:50:39.837Z,1015.8
2023-02-23T11:51:39.840Z,1015.75
2023-02-23T11:52:39.827Z,1015.83
2023-02-23T11:53:39.848Z,1015.81
2023-02-23T11:54:39.836Z,1015.67
2023-02-23T11:55:39.846Z,1015.71
2023-02-23T11:56:39.843Z,1015.7
2023-02-23T11:57:39.839Z,1015.66
2023-02-23T11:58:39.847Z,1015.75
2023-02-23T11:59:39.846Z,1015.75
2023-02-23T12:00:39.846Z,1015.63
2023-02-23T12:01:39.846Z,1015.77
2023-02-23T12:02:39.833Z,1015.72
2023-02-23T12:03:39.857Z,1015.72
2023-02-23T12:04:39.846Z,1015.77
2023-02-23T12:05:39.837Z,1015.62
2023-02-23T12:06:39.954Z,1015.68
2023-02-23T12:07:39.836Z,1015.69
2023-02-23T12:08:39.855Z,1015.68
2023-02-23T12:09:39.842Z,1015.6